createdAt,value
2022-12-06T00:01:48.397Z,4.75
2022-12-06T00:04:16.566Z,5.20
2022-12-06T00:06:48.098Z,4.13
2022-12-06T00:09:21.418Z,4.57
2022-12-06T00:11:48.389Z,4.00
2022-12-06T00:14:15.232Z,4.35
2022-12-06T00:16:41.881Z,3.83
2022-12-06T00:19:12.370Z,4.50
2022-12-06T00:21:39.707Z,4.65
2022-12-06T00:24:20.776Z,3.55
2022-12-06T00:26:48.687Z,3.90
2022-12-06T00:29:21.520Z,4.25
2022-12-06T00:31:49.265Z,3.80
2022-12-06T00:34:16.437Z,4.50
2022-12-06T00:36:43.564Z,3.60
2022-12-06T00:39:12.987Z,4.57
2022-12-06T00:41:40.519Z,3.97
2022-12-06T00:44:07.496Z,4.70
2022-12-06T00:46:35.183Z,4.83
2022-12-06T00:49:03.788Z,5.90
2022-12-06T00:51:32.154Z,4.57
2022-12-06T00:53:59.214Z,4.50
2022-12-06T00:56:26.331Z,4.17
2022-12-06T00:58:53.313Z,4.53
2022-12-06T01:01:28.059Z,4.10
2022-12-06T01:03:57.322Z,4.32
2022-12-06T01:06:28.107Z,3.65
2022-12-06T01:08:56.547Z,4.50
2022-12-06T01:11:24.170Z,3.83
2022-12-06T01:13:51.900Z,3.75
2022-12-06T01:16:24.427Z,4.03
2022-12-06T01:18:59.593Z,3.45
2022-12-06T01:21:26.717Z,3.80
2022-12-06T01:23:56.541Z,4.05
2022-12-06T01:26:26.034Z,3.38
2022-12-06T01:28:53.543Z,3.87
2022-12-06T01:31:20.919Z,3.50
2022-12-06T01:33:47.610Z,4.55
2022-12-06T01:36:18.611Z,4.13
2022-12-06T01:38:50.295Z,3.72
2022-12-06T01:41:17.046Z,3.67
2022-12-06T01:43:44.443Z,3.90
2022-12-06T01:46:18.243Z,3.92
2022-12-06T01:48:45.501Z,3.53
2022-12-06T01:51:14.665Z,4.30
2022-12-06T01:53:45.495Z,4.43
2022-12-06T01:56:12.906Z,3.70
2022-12-06T01:58:41.715Z,4.45
2022-12-06T02:01:09.711Z,3.88
2022-12-06T02:03:38.178Z,4.15
2022-12-06T02:06:07.363Z,4.05
2022-12-06T02:08:35.706Z,4.40
2022-12-06T02:11:03.387Z,3.90
2022-12-06T02:13:32.538Z,3.83
2022-12-06T02:16:32.947Z,3.83
2022-12-06T02:19:27.277Z,4.47
2022-12-06T02:22:17.605Z,4.27
2022-12-06T02:25:21.795Z,4.43
2022-12-06T02:27:48.312Z,4.10
2022-12-06T02:30:18.905Z,3.55
2022-12-06T02:32:59.936Z,4.60
2022-12-06T02:35:40.881Z,4.28
2022-12-06T02:38:13.501Z,4.78
2022-12-06T02:40:47.032Z,4.38
2022-12-06T02:43:20.823Z,4.90
2022-12-06T02:45:54.226Z,5.13
2022-12-06T02:48:23.520Z,5.45
2022-12-06T02:50:56.435Z,4.40
2022-12-06T02:53:25.932Z,5.20
2022-12-06T02:55:53.248Z,4.88
2022-12-06T02:58:19.820Z,4.57
2022-12-06T03:00:50.832Z,4.88
2022-12-06T03:03:26.127Z,4.68
2022-12-06T03:06:01.984Z,5.00
2022-12-06T03:08:53.287Z,5.40
2022-12-06T03:13:59.808Z,5.00
2022-12-06T03:16:28.317Z,4.57
2022-12-06T03:19:13.341Z,4.55
2022-12-06T03:21:46.611Z,4.63
2022-12-06T03:24:15.735Z,5.23
2022-12-06T03:26:45.709Z,5.30
2022-12-06T03:29:15.353Z,4.53
2022-12-06T03:31:42.210Z,4.57
2022-12-06T03:34:20.986Z,5.17
2022-12-06T03:36:50.110Z,4.97
2022-12-06T03:39:24.598Z,4.87
2022-12-06T03:41:57.734Z,4.43
2022-12-06T03:44:25.533Z,4.73
2022-12-06T03:47:16.056Z,4.85
2022-12-06T03:49:56.999Z,4.55
2022-12-06T03:52:25.184Z,5.65
2022-12-06T03:54:51.786Z,4.37
2022-12-06T03:57:18.526Z,4.90
2022-12-06T03:59:46.243Z,4.70
2022-12-06T04:02:12.906Z,5.37
2022-12-06T04:04:40.567Z,5.17
2022-12-06T04:07:07.236Z,6.53
2022-12-06T04:09:52.348Z,5.60
2022-12-06T04:12:37.974Z,4.85
2022-12-06T04:15:06.405Z,5.80
2022-12-06T04:17:51.512Z,6.50
2022-12-06T04:20:18.260Z,5.43
2022-12-06T04:23:03.459Z,4.87
2022-12-06T04:25:36.749Z,4.28
2022-12-06T04:28:22.603Z,5.28
2022-12-06T04:31:08.162Z,5.20
2022-12-06T04:33:53.435Z,4.68
2022-12-06T04:36:38.536Z,5.30
2022-12-06T04:39:05.578Z,5.33
2022-12-06T04:41:50.871Z,6.03
2022-12-06T04:44:17.657Z,5.43
2022-12-06T04:46:44.412Z,5.20
2022-12-06T04:49:11.047Z,4.50
2022-12-06T04:51:37.626Z,4.70
2022-12-06T04:54:05.453Z,4.40
2022-12-06T04:56:32.022Z,5.77
2022-12-06T04:58:58.556Z,4.90
2022-12-06T05:01:25.158Z,4.70
2022-12-06T05:03:52.631Z,4.97
2022-12-06T05:06:19.165Z,4.43
2022-12-06T05:08:45.742Z,4.87
2022-12-06T05:11:12.626Z,3.88
2022-12-06T05:13:39.127Z,4.83
2022-12-06T05:16:07.248Z,5.05
2022-12-06T05:18:34.499Z,4.83
2022-12-06T05:21:02.282Z,5.00
2022-12-06T05:23:29.093Z,5.05
2022-12-06T05:26:00.299Z,5.38
2022-12-06T05:30:54.142Z,5.22
2022-12-06T05:33:21.096Z,4.57
2022-12-06T05:35:47.614Z,4.47
2022-12-06T05:38:14.211Z,5.13
2022-12-06T05:40:41.883Z,4.67
2022-12-06T05:43:08.434Z,4.68
2022-12-06T05:45:37.039Z,4.80
2022-12-06T05:48:04.216Z,4.07
2022-12-06T05:50:31.082Z,5.40
2022-12-06T05:52:59.359Z,5.03
2022-12-06T05:55:26.769Z,5.07
2022-12-06T05:57:54.612Z,5.25
2022-12-06T06:00:21.647Z,5.30
2022-12-06T06:02:48.328Z,5.27
2022-12-06T06:05:14.997Z,5.40
2022-12-06T06:07:41.634Z,5.72
2022-12-06T06:10:08.494Z,5.47
2022-12-06T06:12:35.022Z,5.43
2022-12-06T06:15:01.622Z,5.85
2022-12-06T06:17:28.353Z,5.23
2022-12-06T06:19:54.903Z,5.23
2022-12-06T06:22:23.101Z,4.78
2022-12-06T06:24:49.654Z,5.80
2022-12-06T06:27:16.146Z,4.70
2022-12-06T06:29:45.535Z,4.97
2022-12-06T06:32:13.767Z,5.57
2022-12-06T06:34:40.416Z,5.43
2022-12-06T06:37:06.984Z,4.00
2022-12-06T06:39:33.590Z,4.83
2022-12-06T06:42:00.099Z,5.40
2022-12-06T06:44:26.610Z,4.60
2022-12-06T06:46:53.170Z,4.80
2022-12-06T06:49:19.777Z,4.90
2022-12-06T06:51:46.506Z,5.60
2022-12-06T06:54:13.123Z,5.25
2022-12-06T06:56:39.691Z,4.88
2022-12-06T06:59:06.524Z,4.85
2022-12-06T07:01:33.329Z,5.28
2022-12-06T07:04:00.054Z,5.37
2022-12-06T07:06:26.592Z,5.43
2022-12-06T07:08:53.155Z,5.20
2022-12-06T07:11:19.944Z,5.40
2022-12-06T07:13:51.246Z,5.72
2022-12-06T07:16:19.529Z,4.87
2022-12-06T07:18:47.603Z,5.30
2022-12-06T07:21:16.137Z,5.25
2022-12-06T07:23:43.235Z,4.72
2022-12-06T07:26:15.597Z,4.72
2022-12-06T07:28:44.105Z,5.25
2022-12-06T07:31:16.321Z,5.18
2022-12-06T07:33:43.559Z,4.75
2022-12-06T07:36:13.422Z,4.97
2022-12-06T07:38:42.669Z,4.13
2022-12-06T07:41:31.470Z,5.00
2022-12-06T07:44:19.347Z,5.05
2022-12-06T07:46:46.679Z,4.88
2022-12-06T07:49:15.766Z,5.03
2022-12-06T07:51:43.891Z,4.50
2022-12-06T07:54:10.483Z,4.97
2022-12-06T07:56:37.681Z,4.85
2022-12-06T07:59:04.275Z,6.03
2022-12-06T08:01:31.276Z,5.55
2022-12-06T08:04:02.795Z,4.88
2022-12-06T08:06:31.368Z,5.37
2022-12-06T08:09:01.001Z,4.78
2022-12-06T08:11:28.740Z,5.10
2022-12-06T08:13:55.685Z,4.85
2022-12-06T08:16:22.325Z,5.72
2022-12-06T08:18:48.961Z,6.00
2022-12-06T08:21:16.585Z,6.63
2022-12-06T08:23:43.126Z,7.05
2022-12-06T08:26:13.320Z,6.25
2022-12-06T08:28:40.693Z,6.10
2022-12-06T08:31:13.336Z,6.55
2022-12-06T08:33:40.412Z,5.82
2022-12-06T08:36:09.063Z,6.00
2022-12-06T08:38:37.544Z,6.13
2022-12-06T08:41:05.404Z,6.55
2022-12-06T08:43:32.382Z,5.95
2022-12-06T08:45:59.043Z,6.15
2022-12-06T08:48:26.977Z,5.57
2022-12-06T08:50:53.576Z,5.90
2022-12-06T08:53:20.112Z,6.28
2022-12-06T08:56:00.415Z,6.40
2022-12-06T08:58:29.065Z,9.05
2022-12-06T09:00:55.762Z,7.07
2022-12-06T09:03:22.387Z,9.75
2022-12-06T09:05:48.934Z,6.97
2022-12-06T09:08:15.576Z,5.65
2022-12-06T09:10:43.870Z,6.38
2022-12-06T09:13:10.425Z,5.85
2022-12-06T09:15:38.588Z,6.50
2022-12-06T09:18:05.261Z,5.90
2022-12-06T09:20:31.905Z,6.45
2022-12-06T09:22:58.459Z,7.13
2022-12-06T09:25:25.278Z,8.15
2022-12-06T09:27:53.023Z,6.68
2022-12-06T09:30:19.672Z,8.95
2022-12-06T09:32:48.261Z,7.80
2022-12-06T09:35:15.949Z,7.35
2022-12-06T09:37:44.224Z,7.22
2022-12-06T09:40:41.247Z,6.68
2022-12-06T09:43:40.734Z,6.32
2022-12-06T09:46:31.663Z,6.13
2022-12-06T09:49:16.312Z,6.32
2022-12-06T09:51:53.491Z,5.30
2022-12-06T09:54:38.959Z,6.78
2022-12-06T09:57:18.478Z,6.07
2022-12-06T09:59:51.356Z,4.75
2022-12-06T10:02:36.726Z,6.13
2022-12-06T10:05:24.417Z,5.18
2022-12-06T10:08:38.447Z,5.57
2022-12-06T10:11:33.758Z,5.57
2022-12-06T10:14:12.719Z,7.03
2022-12-06T10:17:08.726Z,5.65
2022-12-06T10:19:42.103Z,5.72
2022-12-06T10:22:28.495Z,5.45
2022-12-06T10:25:11.067Z,5.85
2022-12-06T10:27:48.261Z,5.57
2022-12-06T10:30:16.864Z,5.40
2022-12-06T10:33:14.995Z,6.55
2022-12-06T10:35:59.945Z,8.43
2022-12-06T10:38:47.996Z,6.90
2022-12-06T10:41:30.810Z,7.13
2022-12-06T10:44:15.699Z,6.20
2022-12-06T10:47:04.433Z,6.72
2022-12-06T10:49:41.128Z,6.55
2022-12-06T10:52:29.563Z,5.88
2022-12-06T10:54:59.109Z,6.22
2022-12-06T10:57:51.202Z,6.32
2022-12-06T11:00:18.400Z,7.38
2022-12-06T11:03:04.483Z,6.90
2022-12-06T11:05:37.325Z,6.38
2022-12-06T11:08:10.704Z,7.15
2022-12-06T11:10:39.126Z,8.00
2022-12-06T11:13:37.742Z,7.88
2022-12-06T11:16:11.095Z,7.28
2022-12-06T11:18:38.494Z,6.43
2022-12-06T11:21:11.056Z,6.20
2022-12-06T11:24:14.005Z,6.75
2022-12-06T11:26:46.574Z,6.30
2022-12-06T11:29:15.912Z,6.85
2022-12-06T11:31:46.886Z,6.90
2022-12-06T11:34:38.379Z,6.90
2022-12-06T11:37:06.445Z,6.57
2022-12-06T11:39:34.052Z,7.10
2022-12-06T11:42:03.697Z,6.65
2022-12-06T11:44:42.494Z,8.27
2022-12-06T11:47:19.099Z,6.88
2022-12-06T11:49:47.027Z,6.15
2022-12-06T11:52:35.491Z,7.15
2022-12-06T11:55:24.173Z,6.78
2022-12-06T11:58:03.760Z,7.00
2022-12-06T12:00:31.345Z,6.13
2022-12-06T12:02:58.602Z,5.80
2022-12-06T12:05:25.518Z,5.78
2022-12-06T12:08:02.206Z,6.60
2022-12-06T12:10:42.658Z,5.75
2022-12-06T12:13:30.640Z,5.90
2022-12-06T12:16:01.484Z,7.68
2022-12-06T12:18:40.971Z,6.90
2022-12-06T12:21:07.794Z,6.13
2022-12-06T12:23:43.245Z,6.85
2022-12-06T12:26:18.134Z,6.40
2022-12-06T12:29:01.419Z,5.97
2022-12-06T12:31:28.021Z,7.45
2022-12-06T12:34:27.698Z,6.10
2022-12-06T12:36:58.548Z,6.57
2022-12-06T12:39:35.255Z,6.38
2022-12-06T12:42:02.389Z,6.38
2022-12-06T12:44:38.053Z,7.10
2022-12-06T12:47:19.922Z,6.72
2022-12-06T12:50:20.146Z,6.28
2022-12-06T12:52:47.310Z,6.68
2022-12-06T12:55:29.069Z,6.10
2022-12-06T12:57:58.963Z,6.75
2022-12-06T13:00:37.550Z,6.40
2022-12-06T13:03:34.440Z,6.70
2022-12-06T13:05:57.473Z,6.38
2022-12-06T13:08:29.073Z,6.20
2022-12-06T13:10:59.452Z,7.03
2022-12-06T13:13:35.175Z,7.07
2022-12-06T13:16:10.151Z,6.65
2022-12-06T13:18:54.370Z,5.43
2022-12-06T13:21:27.835Z,5.78
2022-12-06T13:24:07.708Z,6.75
2022-12-06T13:26:56.134Z,6.93
2022-12-06T13:29:22.617Z,6.72
2022-12-06T13:31:52.520Z,7.35
2022-12-06T13:34:38.051Z,6.97
2022-12-06T13:37:28.960Z,6.82
2022-12-06T13:39:56.976Z,6.60
2022-12-06T13:42:42.291Z,7.25
2022-12-06T13:45:45.591Z,7.20
2022-12-06T13:48:24.654Z,6.72
2022-12-06T13:50:55.815Z,6.78
2022-12-06T13:55:59.078Z,7.10
2022-12-06T13:58:27.233Z,7.20
2022-12-06T14:00:55.373Z,6.72
2022-12-06T14:03:23.425Z,6.45
2022-12-06T14:06:09.125Z,6.70
2022-12-06T14:08:53.690Z,6.70
2022-12-06T14:11:26.365Z,6.50
2022-12-06T14:13:55.849Z,6.15
2022-12-06T14:16:40.405Z,6.45
2022-12-06T14:19:21.002Z,5.65
2022-12-06T14:22:04.557Z,6.45
2022-12-06T14:24:35.639Z,5.55
2022-12-06T14:27:06.915Z,5.70
2022-12-06T14:29:33.969Z,6.38
2022-12-06T14:32:00.475Z,6.30
2022-12-06T14:34:29.726Z,6.40
2022-12-06T14:36:57.881Z,5.68
2022-12-06T14:39:28.057Z,5.40
2022-12-06T14:42:19.323Z,6.70
2022-12-06T14:45:00.356Z,6.78
2022-12-06T14:47:28.999Z,5.85
2022-12-06T14:50:17.800Z,6.22
2022-12-06T14:53:12.823Z,6.10
2022-12-06T14:55:57.647Z,5.65
2022-12-06T14:58:27.845Z,5.68
2022-12-06T15:00:55.790Z,5.80
2022-12-06T15:03:25.668Z,6.80
2022-12-06T15:06:17.164Z,5.90
2022-12-06T15:09:03.891Z,6.30
2022-12-06T15:11:49.040Z,6.03
2022-12-06T15:14:19.210Z,6.63
2022-12-06T15:16:58.871Z,7.03
2022-12-06T15:19:26.173Z,6.75
2022-12-06T15:21:53.466Z,6.93
2022-12-06T15:24:26.085Z,7.38
2022-12-06T15:26:53.486Z,6.88
2022-12-06T15:29:20.555Z,6.63
2022-12-06T15:31:58.164Z,6.60
2022-12-06T15:34:30.346Z,6.95
2022-12-06T15:37:30.181Z,7.22
2022-12-06T15:39:45.508Z,6.68
2022-12-06T15:42:20.042Z,6.72
2022-12-06T15:44:49.860Z,7.10
2022-12-06T15:47:18.362Z,8.13
2022-12-06T15:49:45.602Z,7.28
2022-12-06T15:52:17.150Z,8.10
2022-12-06T15:54:44.013Z,7.60
2022-12-06T15:57:10.698Z,7.85
2022-12-06T15:59:37.339Z,7.40
2022-12-06T16:02:04.016Z,9.05
2022-12-06T16:04:32.603Z,9.73
2022-12-06T16:06:59.171Z,12.40
2022-12-06T16:09:25.722Z,17.25
2022-12-06T16:11:52.330Z,10.32
2022-12-06T16:14:18.873Z,9.82
2022-12-06T16:16:45.975Z,9.60
2022-12-06T16:19:12.722Z,9.13
2022-12-06T16:21:54.736Z,8.13
2022-12-06T16:24:21.582Z,7.57
2022-12-06T16:26:48.359Z,7.75
2022-12-06T16:29:25.872Z,7.95
2022-12-06T16:31:53.095Z,8.27
2022-12-06T16:34:20.430Z,8.40
2022-12-06T16:36:57.375Z,8.35
2022-12-06T16:39:24.385Z,8.82
2022-12-06T16:41:51.066Z,8.40
2022-12-06T16:44:17.639Z,8.00
2022-12-06T16:46:45.719Z,7.40
2022-12-06T16:49:45.093Z,12.63
2022-12-06T16:52:06.484Z,10.18
2022-12-06T16:54:33.450Z,8.65
2022-12-06T16:57:00.036Z,8.82
2022-12-06T16:59:26.589Z,11.02
2022-12-06T17:01:55.186Z,14.52
2022-12-06T17:04:22.520Z,10.52
2022-12-06T17:06:49.334Z,11.75
2022-12-06T17:09:16.334Z,12.82
2022-12-06T17:12:02.055Z,7.50
2022-12-06T17:14:29.106Z,6.35
2022-12-06T17:16:56.934Z,6.53
2022-12-06T17:19:27.837Z,6.15
2022-12-06T17:21:54.521Z,6.88
2022-12-06T17:24:22.333Z,7.13
2022-12-06T17:26:49.436Z,7.10
2022-12-06T17:29:16.223Z,10.05
2022-12-06T17:31:43.267Z,14.98
2022-12-06T17:34:12.801Z,8.98
2022-12-06T17:36:40.240Z,10.35
2022-12-06T17:39:11.032Z,9.73
2022-12-06T17:41:56.281Z,9.70
2022-12-06T17:44:23.038Z,9.63
2022-12-06T17:46:49.629Z,10.13
2022-12-06T17:49:19.344Z,11.15
2022-12-06T17:51:46.514Z,12.55
2022-12-06T17:54:13.920Z,14.15
2022-12-06T17:56:43.005Z,12.73
2022-12-06T17:59:15.920Z,12.95
2022-12-06T18:02:13.483Z,12.65
2022-12-06T18:04:31.040Z,12.75
2022-12-06T18:06:58.673Z,17.40
2022-12-06T18:09:25.501Z,15.65
2022-12-06T18:11:52.141Z,16.33
2022-12-06T18:14:18.995Z,15.25
2022-12-06T18:16:48.082Z,18.67
2022-12-06T18:19:18.492Z,18.45
2022-12-06T18:21:45.930Z,16.95
2022-12-06T18:24:24.560Z,15.77
2022-12-06T18:26:53.484Z,16.23
2022-12-06T18:29:23.088Z,16.02
2022-12-06T18:31:50.685Z,14.85
2022-12-06T18:34:18.078Z,14.30
2022-12-06T18:36:44.793Z,13.98
2022-12-06T18:39:15.677Z,14.15
2022-12-06T18:41:46.091Z,14.55
2022-12-06T18:44:13.681Z,14.45
2022-12-06T18:46:42.339Z,14.95
2022-12-06T18:49:11.202Z,13.35
2022-12-06T18:51:38.766Z,13.23
2022-12-06T18:54:06.207Z,14.30
2022-12-06T18:56:33.884Z,13.88
2022-12-06T18:59:02.540Z,12.55
2022-12-06T19:01:35.098Z,13.02
2022-12-06T19:04:03.510Z,12.63
2022-12-06T19:06:33.340Z,12.45
2022-12-06T19:09:02.762Z,11.93
2022-12-06T19:11:29.313Z,9.57
2022-12-06T19:13:58.008Z,10.35
2022-12-06T19:16:29.068Z,11.00
2022-12-06T19:18:58.036Z,10.38
2022-12-06T19:21:25.873Z,10.48
2022-12-06T19:23:54.586Z,11.70
2022-12-06T19:26:21.335Z,12.35
2022-12-06T19:28:48.272Z,11.77
2022-12-06T19:31:15.403Z,11.20
2022-12-06T19:33:44.370Z,11.85
2022-12-06T19:36:17.172Z,10.80
2022-12-06T19:38:44.423Z,12.05
2022-12-06T19:41:16.961Z,9.95
2022-12-06T19:44:02.218Z,9.57
2022-12-06T19:46:30.419Z,10.35
2022-12-06T19:48:59.409Z,10.98
2022-12-06T19:51:28.166Z,10.30
2022-12-06T19:53:57.849Z,11.02
2022-12-06T19:56:25.479Z,11.10
2022-12-06T19:58:52.206Z,11.68
2022-12-06T20:01:29.932Z,11.50
2022-12-06T20:03:56.745Z,9.73
2022-12-06T20:06:27.158Z,10.15
2022-12-06T20:08:58.319Z,8.48
2022-12-06T20:14:16.530Z,11.60
2022-12-06T20:16:43.494Z,11.00
2022-12-06T20:19:17.341Z,10.80
2022-12-06T20:21:44.880Z,10.82
2022-12-06T20:24:13.832Z,10.60
2022-12-06T20:26:40.628Z,11.30
2022-12-06T20:29:07.983Z,12.88
2022-12-06T20:31:35.799Z,28.88
2022-12-06T20:34:07.928Z,19.08
2022-12-06T20:36:36.805Z,18.50
2022-12-06T20:39:03.843Z,20.23
2022-12-06T20:41:33.156Z,17.02
2022-12-06T20:44:01.526Z,16.48
2022-12-06T20:46:30.629Z,16.25
2022-12-06T20:49:02.549Z,14.38
2022-12-06T20:51:30.354Z,13.07
2022-12-06T20:53:59.055Z,12.80
2022-12-06T20:56:31.755Z,12.80
2022-12-06T20:59:00.326Z,12.57
2022-12-06T21:01:29.957Z,12.95
2022-12-06T21:03:57.161Z,13.40
2022-12-06T21:06:25.082Z,12.68
2022-12-06T21:08:52.473Z,11.57
2022-12-06T21:11:23.320Z,11.68
2022-12-06T21:13:55.600Z,11.60
2022-12-06T21:16:26.274Z,11.15
2022-12-06T21:18:59.546Z,9.82
2022-12-06T21:21:29.315Z,9.02
2022-12-06T21:23:59.560Z,8.60
2022-12-06T21:26:26.677Z,10.07
2022-12-06T21:28:54.538Z,9.10
2022-12-06T21:31:26.382Z,9.73
2022-12-06T21:33:53.100Z,9.02
2022-12-06T21:36:19.718Z,9.48
2022-12-06T21:38:46.239Z,8.73
2022-12-06T21:41:13.863Z,10.05
2022-12-06T21:43:40.528Z,9.77
2022-12-06T21:46:10.329Z,9.27
2022-12-06T21:48:36.993Z,10.32
2022-12-06T21:51:06.450Z,11.73
2022-12-06T21:53:33.426Z,11.50
2022-12-06T21:56:04.572Z,12.23
2022-12-06T22:01:03.987Z,13.48
2022-12-06T22:03:30.537Z,14.15
2022-12-06T22:05:57.145Z,14.97
2022-12-06T22:08:23.728Z,13.13
2022-12-06T22:10:52.593Z,13.20
2022-12-06T22:13:19.363Z,14.77
2022-12-06T22:15:46.069Z,13.60
2022-12-06T22:18:12.658Z,11.00
2022-12-06T22:20:39.206Z,10.17
2022-12-06T22:23:05.731Z,9.02
2022-12-06T22:25:32.269Z,9.63
2022-12-06T22:27:58.888Z,9.10
2022-12-06T22:30:25.398Z,9.97
2022-12-06T22:32:52.003Z,11.25
2022-12-06T22:35:18.584Z,10.98
2022-12-06T22:37:45.145Z,10.75
2022-12-06T22:40:11.975Z,12.73
2022-12-06T22:42:38.829Z,14.03
2022-12-06T22:45:06.060Z,12.50
2022-12-06T22:47:32.625Z,12.43
2022-12-06T22:49:59.482Z,11.93
2022-12-06T22:52:26.231Z,11.90
2022-12-06T22:54:52.767Z,12.40
2022-12-06T22:57:19.423Z,10.17
2022-12-06T22:59:46.216Z,8.73
2022-12-06T23:02:12.813Z,8.83
2022-12-06T23:04:39.435Z,8.13
2022-12-06T23:07:05.977Z,7.43
2022-12-06T23:09:32.584Z,6.88
2022-12-06T23:11:59.143Z,7.20
2022-12-06T23:14:25.676Z,6.87
2022-12-06T23:16:52.241Z,7.95
2022-12-06T23:19:18.869Z,8.20
2022-12-06T23:21:46.713Z,7.63
2022-12-06T23:24:14.211Z,7.88
2022-12-06T23:26:44.047Z,7.38
2022-12-06T23:29:11.220Z,7.00
2022-12-06T23:31:41.022Z,6.35
2022-12-06T23:34:20.566Z,5.78
2022-12-06T23:36:47.291Z,7.00
2022-12-06T23:39:14.162Z,7.00
2022-12-06T23:41:40.891Z,7.60
2022-12-06T23:44:07.931Z,6.90
2022-12-06T23:46:36.871Z,5.97
2022-12-06T23:49:05.096Z,6.20
2022-12-06T23:51:36.773Z,6.93
2022-12-06T23:54:05.737Z,7.43
2022-12-06T23:56:38.458Z,9.90
2022-12-06T23:59:06.907Z,12.13
